Cheyenne Regional Jerry Olson Field
KCYS : rendu visible

Aérodrome :











RETROUVEZ-NOUS SUR...

 
LOGIN :

S'inscrire | Disclaimer

   EN    FR    IT 

 









Légende :    VFR   VFR Marginal   IFR   IFR Intensif   IFR Très Intensif
Visi : 
Plafond : 
>= 8 km
>= 3000ft
5 à 8 km
1000 à 3000 ft
1500m à 5 km
500 à 1000 ft
800 à 1500m
200 à 500 ft
< 800m
< 200 ft
Symboles :   Orages  Brouillard  Fortes neiges  Fortes précipitations  Vent > 20 kt






- Altitude de l'aérodrome : 6159 ft
- Code IATA : CYS


KCYS - Cheyenne Regional Jerry Olson Field

DERNIER METAR :
  • 190653Z AUTO 32004KT 10SM CLR M01/M12 A3032 RMK AO2 SLP286 T10061117 400331089

METARs EXPIRÉS :
  • 190553Z AUTO 30008KT 9SM CLR M04/M12 A3031 RMK AO2 SLP298 T10441122 10000 21061 52003
  • 190453Z AUTO 32005KT 10SM CLR M04/M12 A3030 RMK AO2 SLP294 T10391122

TAF KCYS
Valide du 19 à 06h jusqu'au 20 à 06h UTC


190520Z 1906/2006 29011KT P6SM SCT200
FM191800 31012G22KT P6SM SKC



MET'MAP, la Météo Aéronautique d'un coup d'oeil ! - Copyright ORBIFLY Décembre 2007 - Disclaimer

ORBIFLY MET'MAP TEAM :

Programmation & Développement : Alexandra Zaïnal
Sur une idée originale de : Baudouin d'Aumeries
Assistance à la programmation : Marc-Olivier Méhu
Soutien technique & logistique : Manuel Goepfert

Contact : metmap@orbifly.com




SOURCES & CREDITS :

   NOAA       Earth
Advisory